createdAt,value
2023-04-15T00:00:56.672Z,98194.63
2023-04-15T00:03:23.596Z,98194.63
2023-04-15T00:05:50.359Z,98196.53
2023-04-15T00:08:16.884Z,98196.03
2023-04-15T00:10:44.842Z,98195.09
2023-04-15T00:13:11.335Z,98194.59
2023-04-15T00:15:38.117Z,98199.78
2023-04-15T00:18:04.721Z,98191.88
2023-04-15T00:20:31.300Z,98203.72
2023-04-15T00:22:57.999Z,98195.16
2023-04-15T00:25:24.706Z,98190.22
2023-04-15T00:27:52.574Z,98199.22
2023-04-15T00:30:19.262Z,98192.56
2023-04-15T00:32:48.099Z,98194.28
2023-04-15T00:35:14.640Z,98192.19
2023-04-15T00:37:41.360Z,98192.31
2023-04-15T00:40:13.078Z,98187.53
2023-04-15T00:42:39.681Z,98192.75
2023-04-15T00:45:09.048Z,98191.47
2023-04-15T00:47:36.379Z,98202.84
2023-04-15T00:50:03.154Z,98196.19
2023-04-15T00:52:29.746Z,98188.91
2023-04-15T00:54:56.433Z,98186.81
2023-04-15T00:57:22.944Z,98183.66
2023-04-15T00:59:50.054Z,98189.63
2023-04-15T01:02:18.334Z,98186.78
2023-04-15T01:04:45.097Z,98181.19
2023-04-15T01:07:11.619Z,98185.59
2023-04-15T01:09:47.716Z,98177.66
2023-04-15T01:12:14.946Z,98174.16
2023-04-15T01:14:41.751Z,98178.75
2023-04-15T01:17:08.363Z,98177.16
2023-04-15T01:19:36.497Z,98174.44
2023-04-15T01:22:03.585Z,98182.34
2023-04-15T01:24:31.879Z,98178.06
2023-04-15T01:27:00.061Z,98184.34
2023-04-15T01:29:26.714Z,98181.19
2023-04-15T01:31:54.961Z,98178.00
2023-04-15T01:34:21.991Z,98174.03
2023-04-15T01:36:48.647Z,98177.81
2023-04-15T01:39:15.317Z,98171.94
2023-04-15T01:41:41.863Z,98173.53
2023-04-15T01:44:09.755Z,98171.63
2023-04-15T01:46:36.626Z,98171.94
2023-04-15T01:49:03.359Z,98171.94
2023-04-15T01:51:30.107Z,98167.34
2023-04-15T01:53:56.684Z,98174.63
2023-04-15T01:56:23.468Z,98171.47
2023-04-15T01:58:50.390Z,98172.06
2023-04-15T02:01:18.526Z,98167.28
2023-04-15T02:03:45.600Z,98167.91
2023-04-15T02:06:12.209Z,98163.91
2023-04-15T02:08:38.723Z,98160.44
2023-04-15T02:11:05.547Z,98163.91
2023-04-15T02:13:32.212Z,98165.50
2023-04-15T02:15:58.969Z,98171.19
2023-04-15T02:18:27.198Z,98160.13
2023-04-15T02:20:53.777Z,98160.72
2023-04-15T02:23:20.297Z,98162.81
2023-04-15T02:25:53.935Z,98157.44
2023-04-15T02:28:21.097Z,98155.84
2023-04-15T02:30:48.189Z,98158.25
2023-04-15T02:33:14.775Z,98160.13
2023-04-15T02:35:42.807Z,98166.59
2023-04-15T02:38:09.347Z,98174.19
2023-04-15T02:40:35.879Z,98166.59
2023-04-15T02:43:02.399Z,98163.63
2023-04-15T02:45:28.998Z,98166.31
2023-04-15T02:47:55.553Z,98166.31
2023-04-15T02:50:22.178Z,98168.69
2023-04-15T02:52:50.049Z,98167.91
2023-04-15T02:55:16.602Z,98167.69
2023-04-15T02:57:43.236Z,98166.00
2023-04-15T03:00:10.670Z,98165.69
2023-04-15T03:02:38.332Z,98163.63
2023-04-15T03:05:05.940Z,98169.00
2023-04-15T03:07:32.585Z,98165.81
2023-04-15T03:10:00.482Z,98159.94
2023-04-15T03:12:27.051Z,98166.72
2023-04-15T03:14:53.708Z,98157.88
2023-04-15T03:17:20.327Z,98165.44
2023-04-15T03:19:46.904Z,98168.41
2023-04-15T03:22:13.541Z,98156.88
2023-04-15T03:24:40.125Z,98154.78
2023-04-15T03:27:08.073Z,98158.56
2023-04-15T03:29:34.705Z,98154.09
2023-04-15T03:32:01.189Z,98146.63
2023-04-15T03:34:27.810Z,98149.63
2023-04-15T03:36:54.290Z,98144.88
2023-04-15T03:39:20.822Z,98143.56
2023-04-15T03:41:47.380Z,98157.59
2023-04-15T03:44:15.256Z,98147.47
2023-04-15T03:46:42.060Z,98154.53
2023-04-15T03:49:08.646Z,98152.16
2023-04-15T03:51:35.268Z,98153.84
2023-04-15T03:54:01.823Z,98167.09
2023-04-15T03:56:28.365Z,98155.94
2023-04-15T03:58:54.983Z,98164.13
2023-04-15T04:01:23.072Z,98163.41
2023-04-15T04:03:49.870Z,98164.50
2023-04-15T04:06:16.702Z,98162.91
2023-04-15T04:08:43.291Z,98158.44
2023-04-15T04:11:09.880Z,98165.50
2023-04-15T04:13:36.651Z,98158.06
2023-04-15T04:16:03.372Z,98158.66
2023-04-15T04:18:31.563Z,98164.31
2023-04-15T04:20:58.161Z,98164.94
2023-04-15T04:23:25.326Z,98156.88
2023-04-15T04:25:51.851Z,98154.78
2023-04-15T04:28:18.352Z,98154.25
2023-04-15T04:30:45.221Z,98152.66
2023-04-15T04:33:11.728Z,98148.38
2023-04-15T04:35:39.854Z,98159.63
2023-04-15T04:38:06.344Z,98162.81
2023-04-15T04:40:32.913Z,98157.16
2023-04-15T04:42:59.772Z,98160.81
2023-04-15T04:45:26.393Z,98168.50
2023-04-15T04:47:52.983Z,98175.94
2023-04-15T04:50:19.558Z,98178.56
2023-04-15T04:52:47.423Z,98176.56
2023-04-15T04:55:13.946Z,98182.13
2023-04-15T04:57:40.551Z,98173.97
2023-04-15T05:00:08.163Z,98175.44
2023-04-15T05:02:35.000Z,98177.75
2023-04-15T05:05:01.618Z,98173.84
2023-04-15T05:07:28.428Z,98181.78
2023-04-15T05:09:56.379Z,98186.28
2023-04-15T05:12:22.968Z,98189.06
2023-04-15T05:14:49.619Z,98190.06
2023-04-15T05:17:16.126Z,98189.81
2023-04-15T05:19:42.643Z,98194.78
2023-04-15T05:22:09.306Z,98192.47
2023-04-15T05:24:35.817Z,98202.31
2023-04-15T05:27:03.747Z,98201.13
2023-04-15T05:29:30.327Z,98207.66
2023-04-15T05:31:56.899Z,98208.03
2023-04-15T05:34:23.479Z,98212.97
2023-04-15T05:36:50.012Z,98205.97
2023-04-15T05:39:16.528Z,98208.28
2023-04-15T05:41:43.071Z,98207.13
2023-04-15T05:44:10.929Z,98204.97
2023-04-15T05:46:37.552Z,98205.03
2023-04-15T05:49:04.217Z,98213.94
2023-04-15T05:51:30.890Z,98201.13
2023-04-15T05:53:57.450Z,98205.44
2023-04-15T05:56:24.044Z,98203.59
2023-04-15T05:58:52.454Z,98197.75
2023-04-15T06:01:21.653Z,98203.66
2023-04-15T06:03:48.483Z,98202.09
2023-04-15T06:06:15.059Z,98210.69
2023-04-15T06:08:41.656Z,98210.72
2023-04-15T06:11:08.176Z,98207.44
2023-04-15T06:13:35.072Z,98209.53
2023-04-15T06:16:01.694Z,98211.44
2023-04-15T06:18:29.625Z,98215.84
2023-04-15T06:20:56.301Z,98204.44
2023-04-15T06:23:23.013Z,98210.75
2023-04-15T06:25:49.515Z,98218.25
2023-04-15T06:28:16.083Z,98212.69
2023-04-15T06:30:42.688Z,98215.22
2023-04-15T06:33:09.286Z,98215.53
2023-04-15T06:35:37.290Z,98223.00
2023-04-15T06:38:03.895Z,98222.03
2023-04-15T06:40:30.534Z,98228.91
2023-04-15T06:42:57.084Z,98228.72
2023-04-15T06:45:23.619Z,98227.63
2023-04-15T06:47:50.175Z,98232.84
2023-04-15T06:50:16.751Z,98229.69
2023-04-15T06:52:44.800Z,98227.44
2023-04-15T06:55:11.388Z,98227.91
2023-04-15T06:57:37.926Z,98223.97
2023-04-15T07:00:05.266Z,98227.91
2023-04-15T07:02:32.087Z,98233.78
2023-04-15T07:04:58.780Z,98231.72
2023-04-15T07:07:25.607Z,98230.94
2023-04-15T07:09:53.515Z,98229.94
2023-04-15T07:12:20.292Z,98236.13
2023-04-15T07:14:46.850Z,98234.81
2023-04-15T07:17:13.718Z,98231.50
2023-04-15T07:19:40.595Z,98226.38
2023-04-15T07:22:07.344Z,98230.69
2023-04-15T07:24:34.071Z,98229.28
2023-04-15T07:27:02.143Z,98238.94
2023-04-15T07:29:28.706Z,98224.78
2023-04-15T07:31:55.232Z,98223.69
2023-04-15T07:34:21.801Z,98220.81
2023-04-15T07:36:48.519Z,98219.72
2023-04-15T07:39:15.049Z,98222.38
2023-04-15T07:41:41.761Z,98223.50
2023-04-15T07:44:09.620Z,98222.19
2023-04-15T07:46:36.344Z,98227.97
2023-04-15T07:49:03.209Z,98229.25
2023-04-15T07:51:29.924Z,98226.53
2023-04-15T07:53:56.468Z,98224.44
2023-04-15T07:56:23.017Z,98231.63
2023-04-15T07:58:49.665Z,98226.66
2023-04-15T08:01:17.594Z,98228.34
2023-04-15T08:03:44.391Z,98218.56
2023-04-15T08:06:11.009Z,98224.72
2023-04-15T08:08:37.518Z,98232.97
2023-04-15T08:11:04.073Z,98228.03
2023-04-15T08:13:30.749Z,98232.78
2023-04-15T08:16:14.462Z,98222.94
2023-04-15T08:18:42.493Z,98227.75
2023-04-15T08:21:09.006Z,98233.22
2023-04-15T08:23:35.594Z,98226.19
2023-04-15T08:26:02.313Z,98233.81
2023-04-15T08:28:28.984Z,98230.00
2023-04-15T08:30:55.575Z,98231.59
2023-04-15T08:33:22.307Z,98234.91
2023-04-15T08:35:50.183Z,98231.59
2023-04-15T08:38:16.717Z,98240.19
2023-04-15T08:40:45.016Z,98234.13
2023-04-15T08:43:15.132Z,98239.72
2023-04-15T08:45:41.983Z,98234.78
2023-04-15T08:48:09.930Z,98241.75
2023-04-15T08:50:36.436Z,98240.78
2023-04-15T08:53:04.387Z,98233.75
2023-04-15T08:55:36.309Z,98235.06
2023-04-15T08:58:03.226Z,98228.19
2023-04-15T09:00:30.900Z,98235.97
2023-04-15T09:02:59.135Z,98232.78
2023-04-15T09:05:25.910Z,98241.22
2023-04-15T09:07:52.636Z,98237.41
2023-04-15T09:10:20.569Z,98236.91
2023-04-15T09:12:47.113Z,98243.25
2023-04-15T09:15:13.803Z,98246.28
2023-04-15T09:17:43.514Z,98243.56
2023-04-15T09:20:12.019Z,98246.41
2023-04-15T09:22:39.158Z,98244.97
2023-04-15T09:25:26.824Z,98244.03
2023-04-15T09:27:55.077Z,98248.78
2023-04-15T09:30:21.970Z,98249.78
2023-04-15T09:32:50.543Z,98261.03
2023-04-15T09:35:17.584Z,98257.53
2023-04-15T09:37:44.318Z,98258.03
2023-04-15T09:40:12.032Z,98259.59
2023-04-15T09:42:54.530Z,98261.84
2023-04-15T09:45:21.866Z,98262.84
2023-04-15T09:47:48.493Z,98260.91
2023-04-15T09:52:56.244Z,98260.47
2023-04-15T09:55:23.071Z,98270.00
2023-04-15T09:57:50.967Z,98269.19
2023-04-15T10:00:17.710Z,98268.88
2023-04-15T10:02:44.883Z,98265.53
2023-04-15T10:05:14.819Z,98271.75
2023-04-15T10:07:42.408Z,98275.25
2023-04-15T10:10:09.600Z,98270.63
2023-04-15T10:12:37.622Z,98269.84
2023-04-15T10:15:07.424Z,98278.28
2023-04-15T10:17:34.462Z,98284.75
2023-04-15T10:20:01.825Z,98278.06
2023-04-15T10:22:28.918Z,98274.09
2023-04-15T10:24:56.453Z,98282.66
2023-04-15T10:27:23.550Z,98284.13
2023-04-15T10:29:51.149Z,98279.81
2023-04-15T10:32:21.233Z,98277.44
2023-04-15T10:34:49.646Z,98289.25
2023-04-15T10:37:21.378Z,98281.91
2023-04-15T10:39:48.259Z,98287.81
2023-04-15T10:42:16.607Z,98283.16
2023-04-15T10:44:45.575Z,98297.69
2023-04-15T10:47:13.498Z,98287.94
2023-04-15T10:49:48.851Z,98289.06
2023-04-15T10:52:16.417Z,98292.72
2023-04-15T10:54:43.417Z,98300.84
2023-04-15T10:57:16.052Z,98296.88
2023-04-15T11:00:11.606Z,98304.03
2023-04-15T11:02:43.616Z,98304.53
2023-04-15T11:05:43.584Z,98307.41
2023-04-15T11:08:12.686Z,98316.63
2023-04-15T11:10:54.342Z,98303.41
2023-04-15T11:13:22.825Z,98315.81
2023-04-15T11:15:49.875Z,98325.97
2023-04-15T11:18:18.052Z,98326.97
2023-04-15T11:20:46.675Z,98330.94
2023-04-15T11:23:15.827Z,98330.94
2023-04-15T11:25:43.640Z,98341.13
2023-04-15T11:28:12.449Z,98343.53
2023-04-15T11:30:39.761Z,98331.59
2023-04-15T11:33:08.322Z,98344.94
2023-04-15T11:35:35.608Z,98350.81
2023-04-15T11:38:03.708Z,98344.34
2023-04-15T11:40:32.073Z,98346.06
2023-04-15T11:43:05.842Z,98344.81
2023-04-15T11:45:32.686Z,98343.69
2023-04-15T11:48:06.521Z,98348.31
2023-04-15T11:50:33.696Z,98343.22
2023-04-15T11:53:01.749Z,98353.72
2023-04-15T11:55:28.888Z,98350.34
2023-04-15T11:58:15.650Z,98345.75
2023-04-15T12:00:46.903Z,98352.41
2023-04-15T12:03:15.186Z,98354.81
2023-04-15T12:06:16.072Z,98354.81
2023-04-15T12:08:50.811Z,98360.53
2023-04-15T12:11:17.627Z,98356.25
2023-04-15T12:13:47.195Z,98359.44
2023-04-15T12:16:16.453Z,98369.13
2023-04-15T12:18:45.586Z,98372.78
2023-04-15T12:21:12.416Z,98370.56
2023-04-15T12:23:40.114Z,98376.28
2023-04-15T12:26:06.863Z,98378.38
2023-04-15T12:28:34.549Z,98385.19
2023-04-15T12:31:07.429Z,98388.06
2023-04-15T12:33:34.204Z,98389.97
2023-04-15T12:36:00.896Z,98393.97
2023-04-15T12:38:27.682Z,98392.06
2023-04-15T12:40:54.201Z,98396.66
2023-04-15T12:43:20.768Z,98397.44
2023-04-15T12:45:47.335Z,98394.72
2023-04-15T12:48:15.259Z,98405.56
2023-04-15T12:50:41.815Z,98394.25
2023-04-15T12:53:08.670Z,98401.06
2023-04-15T12:55:35.236Z,98405.84
2023-04-15T12:58:01.783Z,98407.44
2023-04-15T13:00:28.340Z,98400.56
2023-04-15T13:02:55.181Z,98410.16
2023-04-15T13:05:23.150Z,98408.25
2023-04-15T13:07:49.825Z,98416.81
2023-04-15T13:10:16.563Z,98421.09
2023-04-15T13:12:43.245Z,98425.41
2023-04-15T13:15:11.066Z,98414.91
2023-04-15T13:17:38.404Z,98420.31
2023-04-15T13:20:05.877Z,98430.19
2023-04-15T13:22:33.813Z,98418.25
2023-04-15T13:25:00.344Z,98422.84
2023-04-15T13:27:27.053Z,98419.34
2023-04-15T13:29:54.149Z,98422.38
2023-04-15T13:32:20.804Z,98425.56
2023-04-15T13:34:47.358Z,98428.28
2023-04-15T13:37:13.932Z,98443.84
2023-04-15T13:39:41.813Z,98441.00
2023-04-15T13:42:08.499Z,98442.28
2023-04-15T13:44:35.095Z,98443.84
2023-04-15T13:47:01.670Z,98442.91
2023-04-15T13:49:28.202Z,98444.31
2023-04-15T13:51:54.746Z,98439.72
2023-04-15T13:54:21.276Z,98441.63
2023-04-15T13:56:49.184Z,98446.56
2023-04-15T13:59:15.753Z,98443.09
2023-04-15T14:01:42.364Z,98447.66
2023-04-15T14:04:09.417Z,98453.72
2023-04-15T14:06:36.351Z,98457.38
2023-04-15T14:09:03.126Z,98456.41
2023-04-15T14:11:30.004Z,98458.31
2023-04-15T14:13:57.985Z,98464.84
2023-04-15T14:16:24.671Z,98469.44
2023-04-15T14:18:51.235Z,98472.81
2023-04-15T14:21:17.824Z,98475.50
2023-04-15T14:23:44.398Z,98479.81
2023-04-15T14:26:10.989Z,98481.72
2023-04-15T14:28:37.679Z,98484.59
2023-04-15T14:31:05.793Z,98493.66
2023-04-15T14:33:32.398Z,98488.69
2023-04-15T14:35:59.016Z,98490.97
2023-04-15T14:38:25.610Z,98504.63
2023-04-15T14:40:52.179Z,98496.66
2023-04-15T14:43:18.725Z,98501.44
2023-04-15T14:45:45.706Z,98506.22
2023-04-15T14:48:13.829Z,98508.63
2023-04-15T14:50:40.669Z,98505.59
2023-04-15T14:53:07.197Z,98516.56
2023-04-15T14:55:33.785Z,98518.94
2023-04-15T14:58:00.322Z,98521.66
2023-04-15T15:00:26.921Z,98522.44
2023-04-15T15:02:53.697Z,98519.75
2023-04-15T15:05:21.998Z,98525.63
2023-04-15T15:07:48.779Z,98537.59
2023-04-15T15:10:15.278Z,98528.03
2023-04-15T15:12:41.782Z,98536.47
2023-04-15T15:15:19.502Z,98535.69
2023-04-15T15:17:55.129Z,98539.50
2023-04-15T15:20:23.356Z,98543.47
2023-04-15T15:22:50.033Z,98547.63
2023-04-15T15:25:16.849Z,98553.84
2023-04-15T15:27:43.447Z,98564.19
2023-04-15T15:30:11.273Z,98558.13
2023-04-15T15:32:39.552Z,98561.16
2023-04-15T15:35:06.769Z,98574.38
2023-04-15T15:37:35.517Z,98569.75
2023-04-15T15:40:03.900Z,98577.25
2023-04-15T15:42:31.707Z,98575.66
2023-04-15T15:44:58.308Z,98584.25
2023-04-15T15:47:25.130Z,98588.53
2023-04-15T15:49:51.748Z,98588.09
2023-04-15T15:52:18.317Z,98591.13
2023-04-15T15:54:46.220Z,98588.41
2023-04-15T15:57:12.805Z,98586.31
2023-04-15T15:59:39.389Z,98593.34
2023-04-15T16:02:06.113Z,98594.13
2023-04-15T16:04:33.025Z,98595.72
2023-04-15T16:06:59.846Z,98592.72
2023-04-15T16:09:26.581Z,98595.41
2023-04-15T16:11:54.560Z,98602.09
2023-04-15T16:14:21.236Z,98602.56
2023-04-15T16:16:47.885Z,98610.69
2023-04-15T16:19:14.455Z,98613.41
2023-04-15T16:21:41.155Z,98611.97
2023-04-15T16:24:07.716Z,98613.56
2023-04-15T16:26:34.520Z,98615.47
2023-04-15T16:29:03.065Z,98620.72
2023-04-15T16:31:30.232Z,98626.31
2023-04-15T16:33:57.406Z,98620.41
2023-04-15T16:36:24.140Z,98637.78
2023-04-15T16:38:50.668Z,98638.25
2023-04-15T16:41:17.326Z,98637.16
2023-04-15T16:43:44.068Z,98643.69
2023-04-15T16:46:12.013Z,98648.59
2023-04-15T16:48:38.740Z,98651.00
2023-04-15T16:51:05.932Z,98653.41
2023-04-15T16:53:32.457Z,98652.59
2023-04-15T16:55:59.089Z,98649.56
2023-04-15T16:58:25.927Z,98647.50
2023-04-15T17:00:52.707Z,98652.13
2023-04-15T17:03:20.729Z,98652.13
2023-04-15T17:05:47.402Z,98664.53
2023-04-15T17:08:13.942Z,98659.44
2023-04-15T17:10:40.633Z,98657.22
2023-04-15T17:13:07.383Z,98673.66
2023-04-15T17:15:33.996Z,98671.38
2023-04-15T17:18:00.666Z,98670.59
2023-04-15T17:20:29.918Z,98671.69
2023-04-15T17:22:56.570Z,98678.41
2023-04-15T17:25:23.224Z,98683.81
2023-04-15T17:27:49.919Z,98681.91
2023-04-15T17:30:16.513Z,98690.66
2023-04-15T17:32:43.118Z,98693.84
2023-04-15T17:35:10.196Z,98691.94
2023-04-15T17:37:38.796Z,98701.66
2023-04-15T17:40:08.621Z,98693.84
2023-04-15T17:42:35.759Z,98704.38
2023-04-15T17:45:02.374Z,98699.75
2023-04-15T17:47:29.100Z,98697.84
2023-04-15T17:49:55.710Z,98699.75
2023-04-15T17:52:22.280Z,98707.56
2023-04-15T17:54:50.247Z,98706.78
2023-04-15T17:57:16.947Z,98706.16
2023-04-15T17:59:43.540Z,98715.69
2023-04-15T18:02:10.293Z,98713.00
2023-04-15T18:04:37.144Z,98721.91
2023-04-15T18:07:04.810Z,98718.09
2023-04-15T18:09:31.807Z,98723.97
2023-04-15T18:11:59.749Z,98724.44
2023-04-15T18:14:34.296Z,98726.34
2023-04-15T18:17:01.801Z,98733.38
2023-04-15T18:19:29.291Z,98723.66
2023-04-15T18:21:55.856Z,98733.06
2023-04-15T18:24:22.388Z,98731.16
2023-04-15T18:26:49.318Z,98740.88
2023-04-15T18:29:17.364Z,98750.91
2023-04-15T18:31:44.102Z,98747.41
2023-04-15T18:34:10.894Z,98761.13
2023-04-15T18:36:37.642Z,98761.44
2023-04-15T18:39:05.553Z,98761.91
2023-04-15T18:41:32.404Z,98764.16
2023-04-15T18:43:58.989Z,98763.19
2023-04-15T18:46:54.931Z,98769.69
2023-04-15T18:49:21.449Z,98777.38
2023-04-15T18:51:48.068Z,98780.09
2023-04-15T18:54:14.810Z,98782.13
2023-04-15T18:56:41.681Z,98787.25
2023-04-15T18:59:09.014Z,98786.94
2023-04-15T19:01:56.467Z,98788.84
2023-04-15T19:04:23.234Z,98795.06
2023-04-15T19:06:49.861Z,98791.06
2023-04-15T19:09:16.448Z,98799.50
2023-04-15T19:11:43.708Z,98799.06
2023-04-15T19:14:10.272Z,98803.31
2023-04-15T19:16:37.049Z,98803.81
2023-04-15T19:19:05.350Z,98802.69
2023-04-15T19:21:32.283Z,98796.50
2023-04-15T19:23:59.481Z,98817.38
2023-04-15T19:26:26.334Z,98813.41
2023-04-15T19:28:52.905Z,98821.66
2023-04-15T19:31:19.720Z,98817.84
2023-04-15T19:33:46.621Z,98818.97
2023-04-15T19:36:14.575Z,98831.72
2023-04-15T19:38:41.277Z,98821.34
2023-04-15T19:41:07.823Z,98828.38
2023-04-15T19:43:34.381Z,98828.06
2023-04-15T19:46:01.000Z,98831.72
2023-04-15T19:48:27.615Z,98833.47
2023-04-15T19:50:54.302Z,98828.88
2023-04-15T19:53:22.375Z,98843.22
2023-04-15T19:55:48.974Z,98844.00
2023-04-15T19:58:15.609Z,98854.38
2023-04-15T20:00:42.408Z,98848.75
2023-04-15T20:03:09.319Z,98857.69
2023-04-15T20:05:35.996Z,98849.88
2023-04-15T20:08:02.800Z,98856.41
2023-04-15T20:10:30.741Z,98849.38
2023-04-15T20:12:57.593Z,98855.94
2023-04-15T20:15:24.301Z,98857.38
2023-04-15T20:17:51.223Z,98851.94
2023-04-15T20:20:17.871Z,98860.38
2023-04-15T20:22:44.571Z,98862.78
2023-04-15T20:25:11.124Z,98866.13
2023-04-15T20:27:39.256Z,98853.84
2023-04-15T20:30:12.250Z,98855.78
2023-04-15T20:32:39.063Z,98869.81
2023-04-15T20:35:06.390Z,98867.09
2023-04-15T20:37:33.949Z,98870.75
2023-04-15T20:40:01.285Z,98866.31
2023-04-15T20:42:28.288Z,98878.75
2023-04-15T20:44:56.245Z,98872.53
2023-04-15T20:47:23.305Z,98881.94
2023-04-15T20:49:50.022Z,98880.34
2023-04-15T20:52:16.602Z,98878.91
2023-04-15T20:54:43.884Z,98885.28
2023-04-15T20:57:10.424Z,98883.50
2023-04-15T20:59:36.983Z,98877.47
2023-04-15T21:02:04.999Z,98890.22
2023-04-15T21:04:31.669Z,98886.22
2023-04-15T21:06:58.253Z,98895.13
2023-04-15T21:09:24.844Z,98887.81
2023-04-15T21:12:00.979Z,98893.53
2023-04-15T21:14:28.495Z,98893.06
2023-04-15T21:16:56.784Z,98897.38
2023-04-15T21:19:24.854Z,98900.09
2023-04-15T21:21:51.395Z,98897.84
2023-04-15T21:24:17.985Z,98898.97
2023-04-15T21:26:46.492Z,98898.66
2023-04-15T21:29:13.347Z,98899.44
2023-04-15T21:31:40.422Z,98900.72
2023-04-15T21:34:07.089Z,98901.84
2023-04-15T21:36:35.521Z,98909.47
2023-04-15T21:39:02.330Z,98907.88
2023-04-15T21:41:29.182Z,98906.16
2023-04-15T21:43:56.010Z,98904.06
2023-04-15T21:46:25.404Z,98911.69
2023-04-15T21:48:53.740Z,98916.34
2023-04-15T21:51:20.461Z,98919.06
2023-04-15T21:53:48.390Z,98921.44
2023-04-15T21:56:15.169Z,98923.69
2023-04-15T21:58:41.752Z,98920.63
2023-04-15T22:01:08.308Z,98924.31
2023-04-15T22:03:35.271Z,98928.75
2023-04-15T22:06:02.918Z,98927.66
2023-04-15T22:08:32.132Z,98930.66
2023-04-15T22:11:01.730Z,98935.47
2023-04-15T22:13:28.265Z,98938.03
2023-04-15T22:15:54.976Z,98943.91
2023-04-15T22:18:21.618Z,98943.91
2023-04-15T22:20:48.126Z,98943.09
2023-04-15T22:23:15.586Z,98947.25
2023-04-15T22:25:43.278Z,98952.69
2023-04-15T22:28:13.078Z,98953.31
2023-04-15T22:30:42.925Z,98948.22
2023-04-15T22:33:09.941Z,98951.72
2023-04-15T22:35:37.013Z,98960.97
2023-04-15T22:38:04.611Z,98963.38
2023-04-15T22:40:31.299Z,98966.38
2023-04-15T22:42:57.874Z,98962.56
2023-04-15T22:45:25.731Z,98976.13
2023-04-15T22:47:52.434Z,98976.31
2023-04-15T22:50:19.251Z,98975.50
2023-04-15T22:52:46.312Z,98976.31
2023-04-15T22:55:12.858Z,98971.38
2023-04-15T22:57:39.446Z,98979.16
2023-04-15T23:00:07.267Z,98981.56
2023-04-15T23:02:35.207Z,98983.78
2023-04-15T23:05:02.601Z,98983.78
2023-04-15T23:07:39.327Z,98982.22
2023-04-15T23:10:07.300Z,98986.03
2023-04-15T23:12:33.913Z,99006.59
2023-04-15T23:15:00.470Z,98991.91
2023-04-15T23:17:27.141Z,98992.25
2023-04-15T23:19:55.116Z,99001.78
2023-04-15T23:22:21.669Z,99001.63
2023-04-15T23:24:48.237Z,99000.38
2023-04-15T23:27:14.888Z,98999.09
2023-04-15T23:29:41.597Z,99005.63
2023-04-15T23:32:08.099Z,99005.63
2023-04-15T23:34:34.623Z,99004.81
2023-04-15T23:37:02.693Z,99005.63
2023-04-15T23:39:29.408Z,99010.22
2023-04-15T23:41:56.157Z,99009.91
2023-04-15T23:44:28.428Z,99014.22
2023-04-15T23:46:55.009Z,99009.78
2023-04-15T23:49:24.369Z,99012.03
2023-04-15T23:51:50.915Z,99010.06
2023-04-15T23:54:18.824Z,99017.09
2023-04-15T23:56:45.532Z,99016.78
2023-04-15T23:59:13.877Z,99010.88
